OEFFB LIEO-LIRN
Flight info
| Callsign | OEFFB |
|---|---|
| Flight time | N/A |
| Altitude | 34000 |
| Route | ATNET DCT TURMO DCT ROTUN DCT PNZ |
| Aircraft | C750/M-SBDE3FGHRWXY/S |
Departure
| Time | 2026-05-07 13:52 |
|---|---|
| Airport | Olbia Costa Smeralda Airport (LIEO) |
Arrival
| Time | N/A |
|---|---|
| Airport | Naples International Airport (LIRN) |
| Time | Latitude | Longitude | Altitude | Speed | Heading |
|---|---|---|---|---|---|
| 2026-05-07 13:48 | 40.89460 | 9.50408 | 42 ft | 0 kts | 123° |
| 2026-05-07 13:49 | 40.89432 | 9.50427 | 42 ft | 6 kts | 156° |
| 2026-05-07 13:50 | 40.89386 | 9.50442 | 42 ft | 7 kts | 173° |
| 2026-05-07 13:50 | 40.89330 | 9.50448 | 43 ft | 9 kts | 179° |
| 2026-05-07 13:50 | 40.89288 | 9.50484 | 43 ft | 7 kts | 109° |
| 2026-05-07 13:50 | 40.89278 | 9.50542 | 44 ft | 6 kts | 102° |
| 2026-05-07 13:51 | 40.89270 | 9.50591 | 44 ft | 5 kts | 101° |
| 2026-05-07 13:51 | 40.89277 | 9.50640 | 43 ft | 5 kts | 57° |
| 2026-05-07 13:51 | 40.89309 | 9.50698 | 42 ft | 22 kts | 55° |
| 2026-05-07 13:51 | 40.89631 | 9.51311 | 39 ft | 132 kts | 55° |
| 2026-05-07 13:52 | 40.90223 | 9.52441 | 498 ft | 147 kts | 56° |
| 2026-05-07 13:52 | 40.90782 | 9.53569 | 1421 ft | 154 kts | 56° |
| 2026-05-07 13:52 | 40.91443 | 9.54759 | 2139 ft | 170 kts | 54° |
| 2026-05-07 13:52 | 40.92176 | 9.56053 | 2940 ft | 180 kts | 55° |
| 2026-05-07 13:53 | 40.92938 | 9.57412 | 3814 ft | 187 kts | 54° |
| 2026-05-07 13:53 | 40.93720 | 9.58824 | 4729 ft | 192 kts | 54° |
| 2026-05-07 13:53 | 40.94513 | 9.60261 | 5642 ft | 194 kts | 54° |
| 2026-05-07 13:53 | 40.95309 | 9.61710 | 6545 ft | 195 kts | 55° |
| 2026-05-07 13:54 | 40.96112 | 9.63177 | 7399 ft | 198 kts | 54° |
| 2026-05-07 13:54 | 40.96932 | 9.64686 | 8177 ft | 210 kts | 54° |
| 2026-05-07 13:54 | 40.97824 | 9.66332 | 8631 ft | 236 kts | 54° |
| 2026-05-07 13:54 | 40.98830 | 9.68198 | 9007 ft | 262 kts | 54° |
| 2026-05-07 13:55 | 40.99936 | 9.70257 | 9265 ft | 287 kts | 54° |
| 2026-05-07 13:55 | 41.01108 | 9.72464 | 9835 ft | 295 kts | 56° |
| 2026-05-07 13:55 | 41.01750 | 9.75079 | 10348 ft | 312 kts | 86° |
| 2026-05-07 13:55 | 41.01335 | 9.77991 | 10469 ft | 339 kts | 114° |
| 2026-05-07 13:56 | 41.00456 | 9.80984 | 10696 ft | 359 kts | 101° |
| 2026-05-07 13:56 | 41.00384 | 9.84271 | 11596 ft | 358 kts | 88° |
| 2026-05-07 13:56 | 41.00541 | 9.87594 | 12307 ft | 365 kts | 88° |
| 2026-05-07 13:56 | 41.00550 | 9.90976 | 13007 ft | 369 kts | 94° |
| 2026-05-07 13:57 | 41.00265 | 9.94374 | 13731 ft | 374 kts | 99° |
| 2026-05-07 13:57 | 40.99902 | 9.97805 | 14350 ft | 379 kts | 98° |
| 2026-05-07 13:57 | 40.99667 | 10.01312 | 14976 ft | 385 kts | 95° |
| 2026-05-07 13:57 | 40.99502 | 10.04878 | 15595 ft | 390 kts | 96° |
| 2026-05-07 13:58 | 40.99267 | 10.08480 | 16236 ft | 395 kts | 98° |
| 2026-05-07 13:58 | 40.98984 | 10.12080 | 16880 ft | 401 kts | 98° |
| 2026-05-07 13:58 | 40.98724 | 10.15784 | 17550 ft | 407 kts | 97° |
| 2026-05-07 13:58 | 40.98489 | 10.19542 | 18240 ft | 412 kts | 97° |
| 2026-05-07 13:59 | 40.98235 | 10.23354 | 18800 ft | 419 kts | 98° |
| 2026-05-07 13:59 | 40.97957 | 10.27224 | 19400 ft | 425 kts | 98° |
| 2026-05-07 13:59 | 40.97680 | 10.31140 | 20012 ft | 431 kts | 97° |
| 2026-05-07 13:59 | 40.97409 | 10.35129 | 20630 ft | 438 kts | 97° |
| 2026-05-07 14:00 | 40.97130 | 10.39174 | 21242 ft | 444 kts | 97° |
| 2026-05-07 14:00 | 40.96839 | 10.43272 | 21854 ft | 450 kts | 97° |
| 2026-05-07 14:00 | 40.96544 | 10.47424 | 22451 ft | 457 kts | 97° |
| 2026-05-07 14:00 | 40.96245 | 10.51642 | 23049 ft | 463 kts | 96° |
| 2026-05-07 14:01 | 40.95953 | 10.55880 | 23361 ft | 462 kts | 96° |
| 2026-05-07 14:01 | 40.95650 | 10.60166 | 23693 ft | 470 kts | 97° |
| 2026-05-07 14:01 | 40.95321 | 10.64470 | 24357 ft | 471 kts | 97° |
| 2026-05-07 14:01 | 40.95006 | 10.68751 | 24851 ft | 476 kts | 97° |
| 2026-05-07 14:02 | 40.94696 | 10.73154 | 25394 ft | 480 kts | 97° |
| 2026-05-07 14:02 | 40.94380 | 10.77542 | 25904 ft | 480 kts | 98° |
| 2026-05-07 14:02 | 40.94043 | 10.82010 | 25947 ft | 497 kts | 98° |
| 2026-05-07 14:02 | 40.93692 | 10.86643 | 25950 ft | 513 kts | 98° |
| 2026-05-07 14:03 | 40.93343 | 10.91401 | 25957 ft | 527 kts | 98° |
| 2026-05-07 14:03 | 40.92983 | 10.96288 | 25960 ft | 540 kts | 98° |
| 2026-05-07 14:03 | 40.92605 | 11.01280 | 25957 ft | 551 kts | 98° |
| 2026-05-07 14:03 | 40.92219 | 11.06337 | 25959 ft | 555 kts | 98° |
| 2026-05-07 14:04 | 40.91832 | 11.11430 | 25957 ft | 557 kts | 98° |
| 2026-05-07 14:04 | 40.91444 | 11.16528 | 25956 ft | 559 kts | 98° |
| 2026-05-07 14:04 | 40.91048 | 11.21646 | 25957 ft | 559 kts | 98° |
| 2026-05-07 14:04 | 40.90655 | 11.26694 | 25957 ft | 559 kts | 98° |
| 2026-05-07 14:05 | 40.90256 | 11.31821 | 25948 ft | 560 kts | 98° |
| 2026-05-07 14:05 | 40.89990 | 11.35216 | 25948 ft | 560 kts | 98° |
| 2026-05-07 14:05 | 40.89592 | 11.40280 | 25942 ft | 549 kts | 98° |
| 2026-05-07 14:05 | 40.89194 | 11.45306 | 25940 ft | 550 kts | 98° |
| 2026-05-07 14:06 | 40.88790 | 11.50334 | 25942 ft | 551 kts | 98° |
| 2026-05-07 14:06 | 40.88387 | 11.55374 | 25943 ft | 552 kts | 98° |
| 2026-05-07 14:06 | 40.87982 | 11.60426 | 25941 ft | 553 kts | 98° |
| 2026-05-07 14:06 | 40.87572 | 11.65482 | 25941 ft | 553 kts | 98° |
| 2026-05-07 14:07 | 40.87159 | 11.70540 | 25939 ft | 552 kts | 98° |
| 2026-05-07 14:07 | 40.86747 | 11.75582 | 25938 ft | 552 kts | 98° |
| 2026-05-07 14:07 | 40.86335 | 11.80628 | 25938 ft | 552 kts | 98° |
| 2026-05-07 14:07 | 40.86230 | 11.85700 | 25930 ft | 554 kts | 89° |
| 2026-05-07 14:08 | 40.86484 | 11.90788 | 25945 ft | 554 kts | 87° |
| 2026-05-07 14:08 | 40.86735 | 11.95871 | 25950 ft | 554 kts | 87° |
| 2026-05-07 14:08 | 40.86961 | 12.00901 | 25953 ft | 555 kts | 88° |
| 2026-05-07 14:08 | 40.87195 | 12.05983 | 25946 ft | 555 kts | 87° |
| 2026-05-07 14:09 | 40.87442 | 12.11069 | 25946 ft | 555 kts | 87° |
| 2026-05-07 14:09 | 40.87685 | 12.16159 | 25949 ft | 555 kts | 87° |
| 2026-05-07 14:09 | 40.87914 | 12.21264 | 25949 ft | 555 kts | 87° |
| 2026-05-07 14:09 | 40.88141 | 12.26356 | 25950 ft | 555 kts | 87° |
| 2026-05-07 14:10 | 40.88374 | 12.31455 | 25947 ft | 555 kts | 87° |
| 2026-05-07 14:10 | 40.88609 | 12.36541 | 25944 ft | 555 kts | 87° |
| 2026-05-07 14:10 | 40.88847 | 12.41644 | 25804 ft | 556 kts | 87° |
| 2026-05-07 14:10 | 40.89079 | 12.46726 | 25158 ft | 550 kts | 87° |
| 2026-05-07 14:11 | 40.89300 | 12.51725 | 24492 ft | 542 kts | 86° |
| 2026-05-07 14:11 | 40.89519 | 12.56663 | 23844 ft | 535 kts | 86° |
| 2026-05-07 14:11 | 40.89734 | 12.61483 | 23110 ft | 528 kts | 86° |
| 2026-05-07 14:11 | 40.89946 | 12.66286 | 22315 ft | 519 kts | 87° |
| 2026-05-07 14:12 | 40.90150 | 12.71016 | 21536 ft | 512 kts | 87° |
| 2026-05-07 14:12 | 40.90349 | 12.75689 | 20778 ft | 504 kts | 87° |
| 2026-05-07 14:12 | 40.90545 | 12.80275 | 20029 ft | 496 kts | 88° |
| 2026-05-07 14:12 | 40.90736 | 12.84791 | 19312 ft | 489 kts | 88° |
| 2026-05-07 14:13 | 40.90917 | 12.89247 | 18613 ft | 482 kts | 88° |
| 2026-05-07 14:13 | 40.90806 | 12.93631 | 17562 ft | 472 kts | 98° |
| 2026-05-07 14:13 | 40.90181 | 12.97813 | 16435 ft | 456 kts | 108° |
| 2026-05-07 14:13 | 40.89124 | 13.01716 | 16153 ft | 450 kts | 115° |
| 2026-05-07 14:14 | 40.87844 | 13.05415 | 15749 ft | 447 kts | 117° |
| 2026-05-07 14:14 | 40.86556 | 13.09137 | 15298 ft | 443 kts | 117° |
| 2026-05-07 14:14 | 40.85288 | 13.12835 | 14849 ft | 440 kts | 117° |
| 2026-05-07 14:14 | 40.84027 | 13.16481 | 14402 ft | 434 kts | 117° |
| 2026-05-07 14:15 | 40.82769 | 13.20082 | 13970 ft | 430 kts | 117° |
| 2026-05-07 14:15 | 40.81521 | 13.23652 | 13510 ft | 426 kts | 117° |
| 2026-05-07 14:15 | 40.80284 | 13.27205 | 13070 ft | 424 kts | 117° |
| 2026-05-07 14:15 | 40.79055 | 13.30731 | 12642 ft | 421 kts | 117° |
| 2026-05-07 14:16 | 40.77835 | 13.34220 | 12215 ft | 416 kts | 116° |
| 2026-05-07 14:16 | 40.76625 | 13.37674 | 11793 ft | 413 kts | 116° |
| 2026-05-07 14:16 | 40.75420 | 13.41105 | 11377 ft | 410 kts | 116° |
| 2026-05-07 14:16 | 40.73945 | 13.44291 | 10948 ft | 405 kts | 129° |
| 2026-05-07 14:17 | 40.71985 | 13.46931 | 10913 ft | 404 kts | 141° |
| 2026-05-07 14:17 | 40.69714 | 13.49100 | 10927 ft | 404 kts | 146° |
| 2026-05-07 14:17 | 40.67452 | 13.51200 | 10936 ft | 403 kts | 146° |
| 2026-05-07 14:17 | 40.65162 | 13.53352 | 10933 ft | 403 kts | 145° |
| 2026-05-07 14:18 | 40.62870 | 13.55486 | 10933 ft | 403 kts | 146° |